Time;durP1;ratioP1;P1;durP2;ratioP2;P2;SDS_P1;SDS_P2;PMS_P1;PMS_P2;Temp;Humidity;BMP_temperature;BMP_pressure;BME280_temperature;BME280_humidity;BME280_pressure;Samples;Min_cycle;Max_cycle;Signal;HPM_P1;HPM_P2
2022/08/20 00:00:45;;;;;;;8.38;4.40;;;;;;;;;;5111209;28;20026;-72
2022/08/20 00:03:22;;;;;;;9.50;4.68;;;;;;;;;;5111143;28;20019;-72
2022/08/20 00:05:52;;;;;;;9.43;4.82;;;;;;;;;;5111271;28;20375;-72
2022/08/20 00:08:18;;;;;;;9.70;4.88;;;;;;;;;;5111032;28;20032;-72
2022/08/20 00:12:35;;;;;;;11.77;4.50;;;;;;;;;;5110842;27;20392;-72
2022/08/20 00:15:02;;;;;;;6.47;4.28;;;;;;;;;;5111299;28;20101;-71
2022/08/20 00:17:35;;;;;;;7.35;3.78;;;;;;;;;;5109459;28;20106;-71
2022/08/20 00:22:01;;;;;;;6.90;3.70;;;;;;;;;;5111661;27;20461;-70
2022/08/20 00:24:27;;;;;;;7.63;3.53;;;;;;;;;;5110848;28;20048;-70
2022/08/20 00:28:55;;;;;;;6.43;3.80;;;;;;;;;;5111926;27;20797;-71
2022/08/20 00:31:23;;;;;;;6.05;3.20;;;;;;;;;;5111301;28;20031;-71
2022/08/20 00:33:49;;;;;;;6.57;3.60;;;;;;;;;;5110838;28;20055;-71
2022/08/20 00:36:16;;;;;;;9.35;4.00;;;;;;;;;;5111130;28;20557;-71
2022/08/20 00:38:43;;;;;;;6.63;3.60;;;;;;;;;;5110757;28;20023;-71
2022/08/20 00:41:11;;;;;;;8.15;4.13;;;;;;;;;;5111261;28;20055;-71
2022/08/20 00:43:40;;;;;;;9.25;4.57;;;;;;;;;;5111021;28;20476;-71
2022/08/20 00:46:35;;;;;;;7.50;4.35;;;;;;;;;;5111271;27;20548;-70
2022/08/20 00:50:48;;;;;;;7.90;3.60;;;;;;;;;;5111400;27;20412;-71
2022/08/20 00:53:53;;;;;;;7.00;3.60;;;;;;;;;;5111273;27;20418;-71
2022/08/20 00:57:50;;;;;;;6.22;3.67;;;;;;;;;;5152425;27;20126;-70
2022/08/20 01:00:16;;;;;;;;;;;;;;;;;;5152562;27;20383;-71
2022/08/20 01:02:43;;;;;;;7.93;4.57;;;;;;;;;;5152374;27;19944;-70
2022/08/20 01:08:26;;;;;;;7.72;4.05;;;;;;;;;;5111012;27;20422;-71
2022/08/20 01:12:07;;;;;;;7.18;3.67;;;;;;;;;;5111586;27;20896;-70
2022/08/20 01:17:01;;;;;;;6.57;3.65;;;;;;;;;;5111203;28;20357;-70
2022/08/20 01:21:22;;;;;;;8.30;5.50;;;;;;;;;;5111019;27;20433;-71
2022/08/20 01:23:48;;;;;;;6.57;3.40;;;;;;;;;;5111434;28;20093;-71
2022/08/20 01:27:39;;;;;;;7.88;3.67;;;;;;;;;;5050747;28;20392;-73
2022/08/20 01:30:06;;;;;;;6.45;3.45;;;;;;;;;;5050540;28;20026;-71
2022/08/20 01:32:33;;;;;;;8.18;4.00;;;;;;;;;;5050682;28;20029;-71
2022/08/20 01:34:59;;;;;;;7.15;3.88;;;;;;;;;;5050167;28;20036;-71
2022/08/20 01:37:25;;;;;;;10.50;4.55;;;;;;;;;;5050575;28;20033;-72
2022/08/20 01:39:51;;;;;;;5.57;3.70;;;;;;;;;;5050591;28;20026;-72
2022/08/20 01:45:58;;;;;;;6.32;3.22;;;;;;;;;;5111830;27;20466;-70
2022/08/20 01:48:24;;;;;;;5.28;3.22;;;;;;;;;;5111341;28;20020;-70
2022/08/20 01:52:41;;;;;;;8.25;4.50;;;;;;;;;;5071528;28;20433;-70
2022/08/20 01:55:07;;;;;;;7.85;4.85;;;;;;;;;;5069504;28;20044;-70
2022/08/20 01:57:34;;;;;;;8.98;4.93;;;;;;;;;;5070256;28;20100;-70
2022/08/20 02:00:00;;;;;;;8.07;4.55;;;;;;;;;;5070558;28;20465;-70
2022/08/20 02:02:40;;;;;;;7.25;4.30;;;;;;;;;;5111792;27;20414;-71
2022/08/20 02:05:07;;;;;;;7.75;4.75;;;;;;;;;;5111004;28;20024;-70
2022/08/20 02:07:33;;;;;;;6.00;3.80;;;;;;;;;;5111417;28;20030;-71
2022/08/20 02:10:00;;;;;;;8.00;3.67;;;;;;;;;;5110821;28;20439;-70
2022/08/20 02:12:26;;;;;;;7.63;4.60;;;;;;;;;;5110989;28;20028;-70
2022/08/20 02:16:52;;;;;;;6.90;4.15;;;;;;;;;;5111724;27;20887;-70
2022/08/20 02:23:25;;;;;;;9.20;4.50;;;;;;;;;;5111815;27;20400;-70
2022/08/20 02:29:24;;;;;;;7.93;4.65;;;;;;;;;;5111851;27;20423;-70
2022/08/20 02:31:51;;;;;;;8.15;4.63;;;;;;;;;;5109567;28;20438;-70
2022/08/20 02:34:17;;;;;;;9.68;4.38;;;;;;;;;;5109954;28;20369;-69
2022/08/20 02:37:21;;;;;;;9.43;5.10;;;;;;;;;;5111951;27;20439;-70
2022/08/20 02:39:47;;;;;;;8.07;4.30;;;;;;;;;;5110778;28;20389;-70
2022/08/20 02:45:17;;;;;;;10.18;4.93;;;;;;;;;;5111213;27;20397;-71
2022/08/20 02:48:21;;;;;;;9.38;5.30;;;;;;;;;;5111422;27;20981;-70
2022/08/20 02:52:07;;;;;;;6.22;3.63;;;;;;;;;;5111369;27;20388;-71
2022/08/20 02:54:34;;;;;;;9.40;4.55;;;;;;;;;;5111285;28;20062;-70
2022/08/20 02:57:01;;;;;;;7.75;4.05;;;;;;;;;;5111408;28;20028;-70
2022/08/20 02:59:27;;;;;;;8.50;3.72;;;;;;;;;;5110975;28;20039;-71
2022/08/20 03:02:51;;;;;;;7.68;4.18;;;;;;;;;;5111297;27;20397;-71
2022/08/20 03:05:17;;;;;;;9.85;4.10;;;;;;;;;;5111313;28;20531;-71
2022/08/20 03:07:47;;;;;;;5.55;3.33;;;;;;;;;;5110766;28;20023;-71
2022/08/20 03:10:13;;;;;;;6.10;3.92;;;;;;;;;;5111254;28;20384;-71
2022/08/20 03:12:40;;;;;;;7.43;4.43;;;;;;;;;;5111128;28;20114;-71
2022/08/20 03:15:07;;;;;;;8.18;4.85;;;;;;;;;;5110676;28;20035;-71
2022/08/20 03:17:33;;;;;;;7.38;4.65;;;;;;;;;;5110969;28;20020;-71
2022/08/20 03:19:59;;;;;;;9.57;5.22;;;;;;;;;;5126749;28;20024;-70
2022/08/20 03:22:25;;;;;;;7.82;4.85;;;;;;;;;;5110477;28;20058;-70
2022/08/20 03:29:29;;;;;;;7.53;4.15;;;;;;;;;;5110781;27;20888;-70
2022/08/20 03:33:00;;;;;;;9.18;4.47;;;;;;;;;;5111443;27;20397;-70
2022/08/20 03:37:36;;;;;;;9.23;5.18;;;;;;;;;;5173735;27;20354;-71
2022/08/20 03:40:04;;;;;;;9.32;5.55;;;;;;;;;;5152384;27;20030;-71
2022/08/20 03:42:31;;;;;;;9.13;5.22;;;;;;;;;;5152052;27;20019;-71
2022/08/20 03:45:40;;;;;;;9.10;5.05;;;;;;;;;;5111417;27;20396;-71
2022/08/20 03:49:35;;;;;;;10.43;4.72;;;;;;;;;;5111220;27;20396;-71
2022/08/20 03:52:52;;;;;;;8.65;4.82;;;;;;;;;;5111600;27;20422;-71
2022/08/20 03:58:46;;;;;;;8.50;4.95;;;;;;;;;;5111982;27;20465;-71
2022/08/20 04:02:40;;;;;;;10.02;4.95;;;;;;;;;;5110968;27;20423;-71
2022/08/20 04:05:07;;;;;;;8.68;4.82;;;;;;;;;;5109949;28;20118;-71
2022/08/20 04:08:59;;;;;;;7.97;4.65;;;;;;;;;;5111690;27;20389;-71
2022/08/20 04:11:25;;;;;;;7.82;4.80;;;;;;;;;;5110993;28;20102;-70
2022/08/20 04:13:51;;;;;;;8.00;4.80;;;;;;;;;;5111320;28;20027;-70
2022/08/20 04:16:17;;;;;;;11.10;5.28;;;;;;;;;;5111200;28;20020;-71
2022/08/20 04:18:43;;;;;;;8.38;5.03;;;;;;;;;;5110715;28;20027;-71
2022/08/20 04:21:10;;;;;;;8.07;4.90;;;;;;;;;;5111277;28;20024;-71
2022/08/20 04:25:39;;;;;;;8.32;5.93;;;;;;;;;;5110737;27;20483;-70
2022/08/20 04:28:07;;;;;;;9.70;5.13;;;;;;;;;;5109454;28;20883;-70
2022/08/20 04:30:33;;;;;;;7.05;4.68;;;;;;;;;;5109652;28;20069;-70
2022/08/20 04:34:56;;;;;;;8.57;5.20;;;;;;;;;;5173888;27;20381;-70
2022/08/20 04:37:38;;;;;;;8.63;5.20;;;;;;;;;;5111627;27;20385;-71
2022/08/20 04:44:25;;;;;;;9.95;4.18;;;;;;;;;;5111954;27;20501;-71
2022/08/20 04:46:51;;;;;;;10.38;5.22;;;;;;;;;;5109584;28;20404;-71
2022/08/20 04:49:19;;;;;;;8.07;4.32;;;;;;;;;;5111201;28;20077;-71
2022/08/20 04:51:45;;;;;;;9.40;4.68;;;;;;;;;;5110811;28;20073;-71
2022/08/20 04:55:42;;;;;;;13.05;5.43;;;;;;;;;;5112111;27;20396;-71
2022/08/20 04:58:10;;;;;;;9.95;5.03;;;;;;;;;;5111251;28;20107;-70
2022/08/20 05:00:36;;;;;;;8.02;4.80;;;;;;;;;;5109587;28;20073;-70
2022/08/20 05:04:13;;;;;;;8.32;5.63;;;;;;;;;;5111368;27;20462;-71
2022/08/20 05:06:39;;;;;;;9.10;5.03;;;;;;;;;;5110865;28;20031;-71
2022/08/20 05:09:06;;;;;;;9.23;5.10;;;;;;;;;;5111331;28;20425;-70
2022/08/20 05:11:32;;;;;;;9.82;5.20;;;;;;;;;;5111146;28;20517;-70
2022/08/20 05:13:58;;;;;;;9.15;5.47;;;;;;;;;;5110763;28;20514;-71
2022/08/20 05:16:24;;;;;;;7.18;4.65;;;;;;;;;;5111073;28;20023;-70
2022/08/20 05:20:42;;;;;;;13.77;5.75;;;;;;;;;;5111262;27;20465;-71
2022/08/20 05:23:09;;;;;;;12.73;6.45;;;;;;;;;;5111300;28;20085;-70
2022/08/20 05:25:36;;;;;;;8.52;5.55;;;;;;;;;;5111185;28;20028;-71
2022/08/20 05:28:08;;;;;;;11.43;5.40;;;;;;;;;;5110755;28;20024;-71
2022/08/20 05:30:42;;;;;;;11.32;5.03;;;;;;;;;;5111197;28;20031;-71
2022/08/20 05:33:09;;;;;;;9.75;5.47;;;;;;;;;;5111249;28;20024;-71
2022/08/20 05:38:36;;;;;;;9.23;4.82;;;;;;;;;;5111523;27;20396;-71
2022/08/20 05:41:03;;;;;;;11.77;5.47;;;;;;;;;;5111103;28;20072;-71
2022/08/20 05:43:29;;;;;;;7.45;4.32;;;;;;;;;;5111147;28;20047;-71
2022/08/20 05:45:57;;;;;;;7.10;3.60;;;;;;;;;;5111151;28;20376;-71
2022/08/20 05:48:24;;;;;;;9.13;5.00;;;;;;;;;;5110676;28;20476;-71
2022/08/20 05:51:28;;;;;;;7.47;4.50;;;;;;;;;;5111579;27;20381;-71
2022/08/20 05:53:56;;;;;;;8.50;4.50;;;;;;;;;;5111507;28;20394;-71
2022/08/20 05:56:22;;;;;;;8.02;4.90;;;;;;;;;;5110679;28;20024;-71
2022/08/20 05:58:48;;;;;;;7.82;4.93;;;;;;;;;;5111114;28;20024;-71
2022/08/20 06:06:27;;;;;;;10.85;4.82;;;;;;;;;;5070671;28;20039;-71
2022/08/20 06:08:53;;;;;;;9.30;6.20;;;;;;;;;;5069350;28;20025;-71
2022/08/20 06:13:07;;;;;;;8.75;4.57;;;;;;;;;;5112044;27;20389;-72
2022/08/20 06:15:34;;;;;;;7.90;4.95;;;;;;;;;;5111364;28;20140;-72
2022/08/20 06:18:22;;;;;;;8.52;5.13;;;;;;;;;;5111598;27;20389;-71
2022/08/20 06:20:49;;;;;;;9.80;4.72;;;;;;;;;;5111350;28;20476;-71
2022/08/20 06:24:07;;;;;;;7.72;4.47;;;;;;;;;;5091086;27;20996;-71
2022/08/20 06:26:34;;;;;;;11.13;5.13;;;;;;;;;;5090695;28;20028;-72
2022/08/20 06:29:01;;;;;;;9.93;5.22;;;;;;;;;;5090260;28;20048;-71
2022/08/20 06:31:27;;;;;;;9.02;5.30;;;;;;;;;;5072215;28;20024;-71
2022/08/20 06:33:53;;;;;;;7.10;4.53;;;;;;;;;;5072927;28;20039;-72
2022/08/20 06:36:19;;;;;;;8.80;4.50;;;;;;;;;;5090712;28;20043;-72
2022/08/20 06:38:46;;;;;;;7.55;4.80;;;;;;;;;;5090258;28;20028;-71
2022/08/20 06:41:12;;;;;;;10.40;5.10;;;;;;;;;;5072531;28;20388;-71
2022/08/20 06:43:38;;;;;;;13.07;5.22;;;;;;;;;;5090594;28;20032;-72
2022/08/20 06:46:05;;;;;;;10.50;5.03;;;;;;;;;;5090069;28;20025;-72
2022/08/20 06:48:31;;;;;;;8.43;5.10;;;;;;;;;;5072478;28;20044;-71
2022/08/20 06:50:58;;;;;;;9.23;4.97;;;;;;;;;;5090407;28;20075;-71
2022/08/20 06:53:24;;;;;;;9.45;4.80;;;;;;;;;;5089991;28;20376;-71
2022/08/20 06:55:52;;;;;;;7.43;4.60;;;;;;;;;;5090333;28;20056;-72
2022/08/20 06:58:19;;;;;;;7.22;4.68;;;;;;;;;;5089928;28;20024;-72
2022/08/20 07:00:46;;;;;;;9.45;5.50;;;;;;;;;;5072348;28;20503;-72
2022/08/20 07:03:13;;;;;;;11.25;6.82;;;;;;;;;;5090494;28;20068;-72
2022/08/20 07:05:43;;;;;;;14.77;7.22;;;;;;;;;;5071658;28;20103;-72
2022/08/20 07:08:10;;;;;;;10.68;7.22;;;;;;;;;;5090139;28;20031;-72
2022/08/20 07:10:36;;;;;;;8.40;5.50;;;;;;;;;;5090046;28;20141;-72
2022/08/20 07:13:03;;;;;;;9.52;6.38;;;;;;;;;;5089609;28;20024;-74
2022/08/20 07:15:29;;;;;;;11.07;5.90;;;;;;;;;;5090546;28;20456;-71
2022/08/20 07:17:57;;;;;;;7.03;4.28;;;;;;;;;;5089925;28;20495;-72
2022/08/20 07:20:24;;;;;;;8.65;5.32;;;;;;;;;;5089454;28;20020;-72
2022/08/20 07:22:50;;;;;;;8.30;4.93;;;;;;;;;;5089686;28;20474;-73
2022/08/20 07:25:17;;;;;;;8.15;4.93;;;;;;;;;;5089746;28;20465;-71
2022/08/20 07:27:44;;;;;;;10.27;6.32;;;;;;;;;;5089410;28;20032;-72
2022/08/20 07:32:58;;;;;;;8.73;5.63;;;;;;;;;;5089388;28;20078;-72
2022/08/20 07:35:24;;;;;;;8.73;5.38;;;;;;;;;;5075258;28;20020;-72
2022/08/20 07:37:53;;;;;;;16.40;5.47;;;;;;;;;;5076094;28;20112;-72
2022/08/20 07:40:26;;;;;;;11.02;6.60;;;;;;;;;;5075909;28;20039;-72
2022/08/20 07:42:52;;;;;;;9.48;5.97;;;;;;;;;;5075841;28;20056;-71
2022/08/20 07:45:19;;;;;;;7.65;5.43;;;;;;;;;;5056928;28;20587;-71
2022/08/20 07:47:46;;;;;;;7.95;5.30;;;;;;;;;;5056048;28;20091;-72
2022/08/20 07:50:15;;;;;;;7.68;4.60;;;;;;;;;;5037629;28;20109;-72
2022/08/20 07:52:41;;;;;;;8.10;5.03;;;;;;;;;;5037759;28;20060;-73
2022/08/20 07:55:09;;;;;;;7.40;4.85;;;;;;;;;;5055374;28;20100;-73
2022/08/20 07:57:36;;;;;;;7.43;5.00;;;;;;;;;;5055908;28;20028;-72
2022/08/20 08:00:03;;;;;;;7.18;4.38;;;;;;;;;;5068365;28;20411;-72
2022/08/20 08:02:29;;;;;;;6.60;4.05;;;;;;;;;;5070834;28;20025;-72
2022/08/20 08:04:55;;;;;;;9.65;4.43;;;;;;;;;;5064317;28;20426;-72
2022/08/20 08:07:22;;;;;;;8.52;4.47;;;;;;;;;;5037610;28;20025;-72
2022/08/20 08:09:50;;;;;;;7.30;4.97;;;;;;;;;;5055243;28;20060;-72
2022/08/20 08:12:16;;;;;;;8.02;4.78;;;;;;;;;;5055259;28;20457;-72
2022/08/20 08:14:44;;;;;;;7.65;4.80;;;;;;;;;;5037429;28;20405;-72
2022/08/20 08:17:11;;;;;;;9.35;4.93;;;;;;;;;;5055141;28;20412;-71
2022/08/20 08:19:41;;;;;;;8.35;4.78;;;;;;;;;;5060981;28;20036;-72
2022/08/20 08:22:11;;;;;;;8.30;5.15;;;;;;;;;;5053226;28;20052;-72
2022/08/20 08:24:38;;;;;;;8.93;5.28;;;;;;;;;;5054455;28;20428;-72
2022/08/20 08:27:04;;;;;;;10.20;4.63;;;;;;;;;;5055090;28;20500;-72
2022/08/20 08:29:30;;;;;;;7.80;4.43;;;;;;;;;;5065929;28;20025;-72
2022/08/20 08:31:56;;;;;;;7.85;4.30;;;;;;;;;;5066090;28;20099;-72
2022/08/20 08:34:24;;;;;;;8.52;4.80;;;;;;;;;;5057771;28;20374;-73
2022/08/20 08:36:50;;;;;;;6.85;4.35;;;;;;;;;;5053700;28;20045;-73
2022/08/20 08:39:17;;;;;;;7.45;4.60;;;;;;;;;;5053525;28;20022;-73
2022/08/20 08:41:48;;;;;;;6.65;4.30;;;;;;;;;;5057350;28;20121;-72
2022/08/20 08:44:20;;;;;;;7.45;4.57;;;;;;;;;;5063588;28;20024;-72
2022/08/20 08:46:48;;;;;;;6.20;4.13;;;;;;;;;;5066591;28;20020;-73
2022/08/20 08:49:18;;;;;;;8.60;4.50;;;;;;;;;;5073954;28;20384;-72
2022/08/20 08:51:47;;;;;;;9.13;4.80;;;;;;;;;;5072171;28;20021;-72
2022/08/20 08:54:19;;;;;;;9.48;4.30;;;;;;;;;;5072444;28;20025;-72
2022/08/20 08:56:45;;;;;;;7.90;4.05;;;;;;;;;;5072335;28;20016;-72
2022/08/20 08:59:12;;;;;;;7.95;4.88;;;;;;;;;;5071952;28;20021;-72
2022/08/20 09:01:45;;;;;;;6.32;3.97;;;;;;;;;;5072398;28;20440;-73
2022/08/20 09:04:12;;;;;;;6.38;4.07;;;;;;;;;;5072528;28;20028;-73
2022/08/20 09:06:39;;;;;;;7.05;4.25;;;;;;;;;;5073823;28;20025;-73
2022/08/20 09:09:06;;;;;;;6.57;3.63;;;;;;;;;;5074192;28;20024;-73
2022/08/20 09:11:44;;;;;;;8.02;5.00;;;;;;;;;;5056608;28;20362;-72
2022/08/20 09:14:10;;;;;;;10.93;4.43;;;;;;;;;;5073762;28;20024;-73
2022/08/20 09:16:36;;;;;;;7.93;4.60;;;;;;;;;;5074206;28;20469;-73
2022/08/20 09:19:03;;;;;;;6.80;3.72;;;;;;;;;;5073613;28;20029;-73
2022/08/20 09:21:29;;;;;;;6.18;3.88;;;;;;;;;;5073784;28;20017;-72
2022/08/20 09:23:55;;;;;;;4.63;3.42;;;;;;;;;;5074136;28;20029;-72
2022/08/20 09:26:22;;;;;;;6.32;3.90;;;;;;;;;;5073541;28;20385;-72
2022/08/20 09:28:48;;;;;;;8.35;4.78;;;;;;;;;;5073830;28;20025;-72
2022/08/20 09:31:14;;;;;;;7.22;4.20;;;;;;;;;;5074199;28;20021;-74
2022/08/20 09:33:40;;;;;;;7.80;4.32;;;;;;;;;;5073389;28;20029;-73
2022/08/20 09:36:06;;;;;;;7.05;3.97;;;;;;;;;;5073766;28;20028;-72
2022/08/20 09:38:32;;;;;;;8.25;4.75;;;;;;;;;;5073632;28;20035;-72
2022/08/20 09:40:59;;;;;;;9.23;4.35;;;;;;;;;;5073614;28;20025;-72
2022/08/20 09:43:25;;;;;;;8.35;4.90;;;;;;;;;;5073834;28;20469;-72
2022/08/20 09:45:51;;;;;;;7.32;4.65;;;;;;;;;;5073884;28;20029;-72
2022/08/20 09:48:17;;;;;;;7.20;4.40;;;;;;;;;;5073220;28;20028;-72
2022/08/20 09:50:47;;;;;;;8.55;4.90;;;;;;;;;;5073574;28;20477;-72
2022/08/20 09:53:13;;;;;;;8.57;4.53;;;;;;;;;;5073567;28;20035;-72
2022/08/20 09:55:41;;;;;;;9.85;4.40;;;;;;;;;;5073049;28;20028;-72
2022/08/20 09:58:12;;;;;;;8.15;4.28;;;;;;;;;;5073240;28;20035;-73
2022/08/20 10:00:39;;;;;;;6.85;4.30;;;;;;;;;;5073808;28;20088;-73
2022/08/20 10:03:05;;;;;;;6.20;4.05;;;;;;;;;;5072776;28;20438;-73
2022/08/20 10:05:31;;;;;;;8.15;4.75;;;;;;;;;;5055421;28;20503;-73
2022/08/20 10:07:58;;;;;;;8.15;4.70;;;;;;;;;;5073282;28;20024;-73
2022/08/20 10:10:24;;;;;;;6.65;3.88;;;;;;;;;;5072875;28;20066;-72
2022/08/20 10:12:50;;;;;;;6.82;4.40;;;;;;;;;;5073621;28;20024;-73
2022/08/20 10:15:16;;;;;;;7.43;4.40;;;;;;;;;;5054896;28;20025;-72
2022/08/20 10:17:43;;;;;;;7.05;4.53;;;;;;;;;;5073248;28;20028;-72
2022/08/20 10:20:11;;;;;;;6.07;4.10;;;;;;;;;;5073098;28;20020;-73
2022/08/20 10:22:37;;;;;;;7.88;4.35;;;;;;;;;;5072595;28;20076;-73
2022/08/20 10:25:04;;;;;;;7.25;4.25;;;;;;;;;;5073141;28;20376;-73
2022/08/20 10:27:30;;;;;;;7.30;4.68;;;;;;;;;;5073088;28;20036;-73
2022/08/20 10:29:56;;;;;;;9.77;4.57;;;;;;;;;;5072623;28;20031;-73
2022/08/20 10:32:22;;;;;;;8.55;4.07;;;;;;;;;;5055133;28;20017;-73
2022/08/20 10:34:48;;;;;;;11.65;4.38;;;;;;;;;;5073010;28;20075;-73
2022/08/20 10:37:19;;;;;;;7.55;5.10;;;;;;;;;;5072779;28;20491;-73
2022/08/20 10:39:46;;;;;;;11.25;5.50;;;;;;;;;;5073102;28;20021;-73
2022/08/20 10:42:12;;;;;;;8.55;4.10;;;;;;;;;;5072960;28;20435;-72
2022/08/20 10:44:39;;;;;;;6.47;4.43;;;;;;;;;;5072640;28;20017;-73
2022/08/20 10:47:14;;;;;;;8.00;4.82;;;;;;;;;;5072917;28;20054;-73
2022/08/20 10:49:40;;;;;;;6.63;4.47;;;;;;;;;;5073072;28;20108;-73
2022/08/20 10:52:06;;;;;;;7.55;4.15;;;;;;;;;;5072662;28;20380;-73
2022/08/20 10:54:32;;;;;;;9.80;4.70;;;;;;;;;;5072865;28;20487;-73
2022/08/20 10:57:03;;;;;;;7.15;4.65;;;;;;;;;;5072668;28;20055;-72
2022/08/20 10:59:29;;;;;;;9.13;4.30;;;;;;;;;;5072348;28;20033;-73
2022/08/20 11:01:56;;;;;;;5.93;4.03;;;;;;;;;;5072863;28;20503;-72
2022/08/20 11:04:22;;;;;;;9.65;4.40;;;;;;;;;;5072370;28;20477;-72
2022/08/20 11:06:48;;;;;;;7.43;4.18;;;;;;;;;;5072822;28;20031;-72
2022/08/20 11:09:14;;;;;;;10.30;4.30;;;;;;;;;;5074197;28;20035;-72
2022/08/20 11:11:40;;;;;;;7.97;5.25;;;;;;;;;;5076070;28;20438;-72
2022/08/20 11:14:06;;;;;;;7.60;4.32;;;;;;;;;;5076424;28;20090;-73
2022/08/20 11:16:32;;;;;;;6.88;4.47;;;;;;;;;;5076368;28;20052;-73
2022/08/20 11:18:59;;;;;;;7.75;4.18;;;;;;;;;;5057935;28;20094;-72
2022/08/20 11:21:25;;;;;;;9.98;4.88;;;;;;;;;;5076308;28;20066;-72
2022/08/20 11:23:51;;;;;;;7.18;4.60;;;;;;;;;;5056351;28;20040;-72
2022/08/20 11:26:24;;;;;;;9.02;4.70;;;;;;;;;;5055960;28;20465;-72
2022/08/20 11:28:50;;;;;;;8.15;4.70;;;;;;;;;;5056472;28;20071;-72
2022/08/20 11:31:16;;;;;;;8.30;5.07;;;;;;;;;;5056503;28;20028;-73
2022/08/20 11:33:43;;;;;;;8.20;4.78;;;;;;;;;;5055661;28;20044;-73
2022/08/20 11:36:09;;;;;;;7.53;5.05;;;;;;;;;;5056151;28;20033;-73
2022/08/20 11:38:35;;;;;;;6.30;4.40;;;;;;;;;;5055276;28;20512;-73
2022/08/20 11:41:01;;;;;;;11.55;5.07;;;;;;;;;;5055562;28;20039;-72
2022/08/20 11:43:27;;;;;;;7.25;4.70;;;;;;;;;;5056089;28;20040;-73
2022/08/20 11:45:55;;;;;;;12.05;5.22;;;;;;;;;;5055907;28;20032;-73
2022/08/20 11:48:21;;;;;;;7.60;5.30;;;;;;;;;;5055505;28;20025;-73
2022/08/20 11:50:47;;;;;;;11.35;5.40;;;;;;;;;;5056080;28;20500;-72
2022/08/20 11:53:14;;;;;;;9.88;4.97;;;;;;;;;;5055770;28;20474;-72
2022/08/20 11:55:40;;;;;;;8.82;5.15;;;;;;;;;;5055335;28;20036;-72
2022/08/20 11:58:06;;;;;;;7.50;4.88;;;;;;;;;;5055776;28;20500;-73
2022/08/20 12:00:32;;;;;;;7.60;5.13;;;;;;;;;;5055594;28;20035;-73
2022/08/20 12:02:58;;;;;;;7.65;4.95;;;;;;;;;;5054123;28;20398;-73
2022/08/20 12:05:26;;;;;;;7.45;4.97;;;;;;;;;;5055527;28;20025;-72
2022/08/20 12:07:52;;;;;;;8.18;4.88;;;;;;;;;;5055137;28;20109;-73
2022/08/20 12:10:18;;;;;;;8.65;5.50;;;;;;;;;;5055403;28;20032;-73
2022/08/20 12:12:45;;;;;;;8.77;4.93;;;;;;;;;;5055384;28;20021;-72
2022/08/20 12:15:11;;;;;;;8.48;4.65;;;;;;;;;;5054936;28;20127;-73
2022/08/20 12:17:37;;;;;;;8.13;5.53;;;;;;;;;;5055346;28;20071;-72
2022/08/20 12:20:06;;;;;;;8.10;4.80;;;;;;;;;;5055157;28;20104;-73
2022/08/20 12:22:33;;;;;;;8.32;5.22;;;;;;;;;;5064155;28;20119;-72
2022/08/20 12:24:59;;;;;;;8.00;4.85;;;;;;;;;;5075253;28;20446;-73
2022/08/20 12:27:26;;;;;;;7.60;4.53;;;;;;;;;;5057091;28;20028;-73
2022/08/20 12:29:53;;;;;;;11.23;4.60;;;;;;;;;;5074902;28;20038;-73
2022/08/20 12:32:20;;;;;;;7.60;4.65;;;;;;;;;;5075290;28;20059;-73
2022/08/20 12:34:46;;;;;;;11.50;5.13;;;;;;;;;;5075062;28;20464;-74
2022/08/20 12:37:14;;;;;;;7.30;4.60;;;;;;;;;;5074678;28;20031;-74
2022/08/20 12:39:41;;;;;;;8.48;5.32;;;;;;;;;;5074954;28;20042;-73
2022/08/20 12:42:08;;;;;;;8.75;5.50;;;;;;;;;;5056718;28;20028;-73
2022/08/20 12:44:34;;;;;;;7.43;5.25;;;;;;;;;;5056325;28;20031;-74
2022/08/20 12:47:10;;;;;;;6.78;4.72;;;;;;;;;;5074664;28;20026;-73
2022/08/20 12:49:36;;;;;;;8.02;4.53;;;;;;;;;;5074912;28;20020;-73
2022/08/20 12:52:03;;;;;;;7.72;5.00;;;;;;;;;;5074215;28;20107;-73
2022/08/20 12:54:29;;;;;;;10.43;5.80;;;;;;;;;;5074593;28;20025;-73
2022/08/20 12:56:55;;;;;;;9.20;5.72;;;;;;;;;;5074205;28;20024;-73
2022/08/20 12:59:25;;;;;;;8.32;5.05;;;;;;;;;;5074542;28;20021;-73
2022/08/20 13:01:51;;;;;;;8.45;4.78;;;;;;;;;;5074318;28;20032;-73
2022/08/20 13:04:18;;;;;;;7.15;4.82;;;;;;;;;;5074005;28;20040;-73
2022/08/20 13:06:44;;;;;;;7.50;4.65;;;;;;;;;;5074422;28;20025;-73
2022/08/20 13:09:11;;;;;;;7.32;4.45;;;;;;;;;;5074351;28;20033;-74
2022/08/20 13:11:37;;;;;;;7.97;4.32;;;;;;;;;;5073785;28;20024;-74
2022/08/20 13:14:03;;;;;;;7.40;4.82;;;;;;;;;;5074271;28;20205;-74
2022/08/20 13:16:29;;;;;;;6.80;4.65;;;;;;;;;;5074131;28;20095;-73
2022/08/20 13:18:55;;;;;;;6.70;4.55;;;;;;;;;;5073673;28;20024;-73
2022/08/20 13:21:21;;;;;;;11.05;4.50;;;;;;;;;;5074153;28;20096;-73
2022/08/20 13:23:48;;;;;;;9.77;4.55;;;;;;;;;;5073808;28;20052;-73
2022/08/20 13:26:14;;;;;;;7.78;4.47;;;;;;;;;;5073732;28;20016;-73
2022/08/20 13:28:40;;;;;;;7.65;4.43;;;;;;;;;;5073919;28;20104;-73
2022/08/20 13:31:06;;;;;;;7.18;4.40;;;;;;;;;;5073640;28;20095;-73
2022/08/20 13:33:32;;;;;;;7.82;4.72;;;;;;;;;;5073307;28;20016;-73
2022/08/20 13:35:59;;;;;;;10.65;5.40;;;;;;;;;;5073956;28;20047;-73
2022/08/20 13:38:25;;;;;;;8.65;5.35;;;;;;;;;;5073882;28;20469;-73
2022/08/20 13:40:51;;;;;;;6.93;4.18;;;;;;;;;;5073291;28;20533;-73
2022/08/20 13:43:17;;;;;;;7.28;4.63;;;;;;;;;;5073579;28;20032;-73
2022/08/20 13:45:43;;;;;;;7.45;4.45;;;;;;;;;;5073675;28;20094;-73
2022/08/20 13:48:10;;;;;;;9.48;4.78;;;;;;;;;;5073247;28;20028;-73
2022/08/20 13:50:36;;;;;;;7.53;4.55;;;;;;;;;;5073596;28;20024;-73
2022/08/20 13:53:03;;;;;;;7.18;4.35;;;;;;;;;;5073491;28;20078;-73
2022/08/20 13:55:29;;;;;;;7.47;4.80;;;;;;;;;;5055501;28;20024;-73
2022/08/20 13:57:55;;;;;;;8.35;5.32;;;;;;;;;;5073500;28;20032;-73
2022/08/20 14:00:24;;;;;;;9.43;4.53;;;;;;;;;;5055127;28;20024;-73
2022/08/20 14:02:50;;;;;;;9.98;4.75;;;;;;;;;;5073319;28;20103;-73
2022/08/20 14:05:16;;;;;;;8.85;4.78;;;;;;;;;;5073561;28;20100;-73
2022/08/20 14:07:43;;;;;;;8.68;5.03;;;;;;;;;;5073435;28;20028;-73
2022/08/20 14:10:10;;;;;;;6.68;4.50;;;;;;;;;;5073290;28;20035;-73
2022/08/20 14:12:36;;;;;;;9.65;4.80;;;;;;;;;;5073384;28;20024;-73
2022/08/20 14:15:03;;;;;;;7.43;5.03;;;;;;;;;;5072877;28;20021;-74
2022/08/20 14:17:30;;;;;;;7.82;4.75;;;;;;;;;;5073362;28;20031;-73
2022/08/20 14:19:58;;;;;;;7.57;4.80;;;;;;;;;;5073799;28;20078;-73
2022/08/20 14:22:25;;;;;;;8.02;4.85;;;;;;;;;;5072547;28;20416;-73
2022/08/20 14:24:51;;;;;;;9.88;5.47;;;;;;;;;;5073296;28;20035;-74
2022/08/20 14:27:19;;;;;;;7.43;4.88;;;;;;;;;;5073198;28;20025;-73
2022/08/20 14:29:46;;;;;;;8.00;4.53;;;;;;;;;;5073003;28;20021;-73
2022/08/20 14:32:12;;;;;;;7.50;4.40;;;;;;;;;;5073175;28;20024;-73
2022/08/20 14:34:39;;;;;;;8.02;4.32;;;;;;;;;;5073400;28;20078;-73
2022/08/20 14:37:09;;;;;;;6.85;4.50;;;;;;;;;;5072612;28;20067;-73
2022/08/20 14:39:35;;;;;;;7.63;4.47;;;;;;;;;;5055061;28;20025;-74
2022/08/20 14:42:02;;;;;;;7.78;5.05;;;;;;;;;;5072891;28;20020;-74
2022/08/20 14:44:30;;;;;;;12.18;8.48;;;;;;;;;;5074694;28;20032;-74
2022/08/20 14:46:57;;;;;;;9.48;5.80;;;;;;;;;;5077078;28;20473;-73
2022/08/20 14:49:23;;;;;;;10.77;4.57;;;;;;;;;;5058630;28;20032;-73
2022/08/20 14:51:49;;;;;;;12.13;4.95;;;;;;;;;;5076943;28;20020;-73
2022/08/20 14:54:15;;;;;;;81.93;10.20;;;;;;;;;;5077080;28;20139;-70
2022/08/20 14:56:41;;;;;;;1035.20;537.67;;;;;;;;;;5076635;28;20209;-70
2022/08/20 14:59:07;;;;;;;1237.38;569.55;;;;;;;;;;5076686;28;20054;-67
2022/08/20 15:01:33;;;;;;;1192.90;589.75;;;;;;;;;;5076620;28;20504;-67
2022/08/20 15:46:35;;;;;;;1195.95;567.70;;;;;;;;;;5110751;27;20397;-69
2022/08/20 15:50:55;;;;;;;1199.28;598.97;;;;;;;;;;5111522;27;20400;-69
2022/08/20 15:53:21;;;;;;;1182.07;586.92;;;;;;;;;;5110961;28;20544;-70
2022/08/20 15:56:22;;;;;;;1192.22;553.03;;;;;;;;;;5111262;27;20368;-70
2022/08/20 15:58:57;;;;;;;1187.78;621.80;;;;;;;;;;5109780;28;20053;-71
2022/08/20 16:03:30;;;;;;;1166.20;581.90;;;;;;;;;;5111064;27;20841;-70
2022/08/20 16:06:58;;;;;;;1179.15;571.08;;;;;;;;;;5110853;27;20384;-70
2022/08/20 16:09:24;;;;;;;1178.97;569.50;;;;;;;;;;5111214;28;20408;-70
2022/08/20 16:12:08;;;;;;;1166.72;570.17;;;;;;;;;;5109582;28;20111;-70
2022/08/20 16:16:23;;;;;;;1170.47;577.90;;;;;;;;;;5070440;28;20412;-71
2022/08/20 16:18:50;;;;;;;1152.28;596.15;;;;;;;;;;5070360;28;20130;-71
2022/08/20 16:21:18;;;;;;;1155.95;605.90;;;;;;;;;;5069963;28;20020;-71
2022/08/20 16:28:53;;;;;;;1168.70;602.13;;;;;;;;;;5070187;28;20787;-70
2022/08/20 16:31:22;;;;;;;1174.53;541.00;;;;;;;;;;5070238;28;20025;-70
2022/08/20 16:34:01;;;;;;;1153.78;584.63;;;;;;;;;;5070283;28;20485;-70
2022/08/20 16:36:38;;;;;;;1167.97;592.65;;;;;;;;;;5070087;28;20040;-71
2022/08/20 16:39:10;;;;;;;1169.90;570.97;;;;;;;;;;5070427;28;20092;-71
2022/08/20 16:45:23;;;;;;;1177.68;589.63;;;;;;;;;;5173327;27;20221;-72
2022/08/20 16:47:50;;;;;;;1124.93;597.67;;;;;;;;;;5152658;27;20474;-71
2022/08/20 16:50:19;;;;;;;1142.90;614.88;;;;;;;;;;5151657;27;20382;-70
2022/08/20 16:54:15;;;;;;;877.90;587.63;;;;;;;;;;5111614;27;20461;-70
2022/08/20 16:58:46;;;;;;;1026.25;601.00;;;;;;;;;;5111808;27;20426;-71
2022/08/20 17:04:23;;;;;;;1028.93;633.33;;;;;;;;;;5110732;27;20113;-71
2022/08/20 17:08:07;;;;;;;1104.55;631.40;;;;;;;;;;5111766;27;20582;-71